Time;durP1;ratioP1;P1;durP2;ratioP2;P2;SDS_P1;SDS_P2;PMS_P1;PMS_P2;Temp;Humidity;BMP_temperature;BMP_pressure;BME280_temperature;BME280_humidity;BME280_pressure;Samples;Min_cycle;Max_cycle;Signal;HPM_P1;HPM_P2
2023/06/08 00:00:39;;;;;;;11.00;7.90;;;15.90;99.90;;;;;;5075532;28;20049;-82
2023/06/08 00:03:06;;;;;;;9.20;8.13;;;15.80;99.90;;;;;;5075455;28;20027;-82
2023/06/08 00:05:43;;;;;;;9.68;8.45;;;15.80;99.90;;;;;;5075976;28;20037;-80
2023/06/08 00:08:11;;;;;;;9.55;8.52;;;15.70;99.90;;;;;;5089852;28;20036;-81
2023/06/08 00:10:37;;;;;;;9.38;8.13;;;15.60;99.90;;;;;;5075429;28;20087;-82
2023/06/08 00:13:04;;;;;;;9.68;8.10;;;15.50;99.90;;;;;;5071811;28;20051;-82
2023/06/08 00:15:32;;;;;;;11.88;8.48;;;15.50;99.90;;;;;;5076606;28;20023;-83
2023/06/08 00:18:00;;;;;;;9.43;7.93;;;15.40;99.90;;;;;;5076155;28;20032;-83
2023/06/08 00:20:26;;;;;;;9.10;8.20;;;15.40;99.90;;;;;;5076509;28;20025;-81
2023/06/08 00:22:52;;;;;;;8.98;8.10;;;15.40;99.90;;;;;;5077663;28;20119;-81
2023/06/08 00:25:19;;;;;;;11.52;8.80;;;15.40;99.90;;;;;;5073562;28;20043;-79
2023/06/08 00:27:45;;;;;;;12.70;9.77;;;15.30;99.90;;;;;;5079274;28;20031;-83
2023/06/08 00:30:13;;;;;;;9.57;8.57;;;15.20;99.90;;;;;;5060273;28;20055;-81
2023/06/08 00:32:40;;;;;;;11.25;7.90;;;15.10;99.90;;;;;;5057763;28;20037;-84
2023/06/08 00:35:07;;;;;;;10.43;8.45;;;15.00;99.90;;;;;;5052899;28;20032;-85
2023/06/08 00:37:35;;;;;;;11.35;8.95;;;14.90;99.90;;;;;;5054857;28;20049;-85
2023/06/08 00:40:04;;;;;;;10.38;8.90;;;14.80;99.90;;;;;;5057140;28;20037;-85
2023/06/08 00:42:31;;;;;;;14.00;9.38;;;14.80;99.90;;;;;;5065533;28;20025;-84
2023/06/08 00:44:57;;;;;;;12.02;8.93;;;14.90;99.90;;;;;;5055081;28;20040;-84
2023/06/08 00:47:25;;;;;;;10.48;9.38;;;14.90;99.90;;;;;;5055012;28;20029;-84
2023/06/08 00:49:53;;;;;;;9.07;8.18;;;15.00;99.90;;;;;;5053849;28;20477;-84
2023/06/08 00:52:20;;;;;;;10.05;8.98;;;15.00;99.90;;;;;;5051813;28;20037;-84
2023/06/08 00:54:48;;;;;;;10.10;8.65;;;14.90;99.90;;;;;;5069820;28;20509;-84
2023/06/08 00:57:18;;;;;;;11.30;9.60;;;14.80;99.90;;;;;;5053254;28;20041;-84
2023/06/08 00:59:49;;;;;;;10.93;9.13;;;14.80;99.90;;;;;;5069311;28;20048;-84
2023/06/08 01:02:18;;;;;;;;;;;14.70;99.90;;;;;;5056914;28;20037;-84
2023/06/08 01:04:45;;;;;;;10.27;8.27;;;14.50;99.90;;;;;;5049978;28;19908;-84
2023/06/08 01:07:25;;;;;;;10.93;9.35;;;14.40;99.90;;;;;;5056408;28;20143;-83
2023/06/08 01:10:38;;;;;;;12.00;9.98;;;14.30;99.90;;;;;;5052996;28;20037;-82
2023/06/08 01:13:13;;;;;;;12.60;10.27;;;14.40;99.90;;;;;;5052389;28;20136;-84
2023/06/08 01:15:44;;;;;;;11.35;9.18;;;14.50;99.90;;;;;;5053812;28;20037;-85
2023/06/08 01:18:13;;;;;;;14.00;10.68;;;14.40;99.90;;;;;;5053851;28;20041;-85
2023/06/08 01:20:46;;;;;;;11.25;9.43;;;14.40;99.90;;;;;;5056959;28;20048;-85
2023/06/08 01:23:49;;;;;;;11.93;10.18;;;14.30;99.90;;;;;;5043804;28;20036;-85
2023/06/08 01:26:18;;;;;;;11.13;10.02;;;14.20;99.90;;;;;;5047230;28;20471;-84
2023/06/08 01:28:51;;;;;;;10.90;9.73;;;14.20;99.90;;;;;;5048031;28;20095;-83
2023/06/08 01:31:17;;;;;;;12.05;10.68;;;14.30;99.90;;;;;;5064049;28;20045;-83
2023/06/08 01:33:43;;;;;;;12.32;9.95;;;14.40;99.90;;;;;;5037375;28;20045;-84
2023/06/08 01:36:25;;;;;;;11.65;9.75;;;14.40;99.90;;;;;;5046681;28;20045;-83
2023/06/08 01:39:12;;;;;;;12.70;9.20;;;14.50;99.90;;;;;;5056917;28;20099;-84
2023/06/08 01:41:44;;;;;;;9.98;8.98;;;14.50;99.90;;;;;;5055138;28;20040;-82
2023/06/08 01:44:14;;;;;;;10.68;9.25;;;14.50;99.90;;;;;;5050638;28;20036;-83
2023/06/08 01:46:47;;;;;;;11.30;9.37;;;14.40;99.90;;;;;;5054317;28;20025;-84
2023/06/08 01:49:14;;;;;;;10.02;8.68;;;14.40;99.90;;;;;;5056651;28;20033;-83
2023/06/08 01:51:42;;;;;;;11.45;10.15;;;14.30;99.90;;;;;;5053210;28;20052;-82
2023/06/08 01:54:08;;;;;;;9.98;8.95;;;14.30;99.90;;;;;;5050778;28;20040;-83
2023/06/08 01:56:35;;;;;;;10.00;9.00;;;14.30;99.90;;;;;;5049076;28;20048;-83
2023/06/08 01:59:03;;;;;;;12.27;9.18;;;14.30;99.90;;;;;;5058993;28;20045;-84
2023/06/08 02:01:30;;;;;;;10.32;9.15;;;14.20;99.90;;;;;;5067595;28;20056;-83
2023/06/08 02:03:56;;;;;;;11.73;9.73;;;14.20;99.90;;;;;;5050348;28;20033;-83
2023/06/08 02:06:22;;;;;;;10.85;9.80;;;14.10;99.90;;;;;;5049906;28;20052;-84
2023/06/08 02:08:48;;;;;;;16.10;11.07;;;14.20;99.90;;;;;;5050837;28;20036;-84
2023/06/08 02:11:14;;;;;;;11.60;10.40;;;14.10;99.90;;;;;;5051384;28;20096;-84
2023/06/08 02:13:41;;;;;;;12.18;10.57;;;14.10;99.90;;;;;;5031497;28;20052;-83
2023/06/08 02:16:08;;;;;;;11.48;9.48;;;14.00;99.90;;;;;;5050873;28;20363;-83
2023/06/08 02:18:40;;;;;;;11.60;9.77;;;13.90;99.90;;;;;;5040879;28;20040;-83
2023/06/08 02:21:07;;;;;;;11.35;10.15;;;13.90;99.90;;;;;;5051195;28;20036;-84
2023/06/08 02:23:34;;;;;;;11.40;10.20;;;13.90;99.90;;;;;;5051516;28;20359;-83
2023/06/08 02:26:06;;;;;;;13.63;10.98;;;13.90;99.90;;;;;;5052657;28;20450;-83
2023/06/08 02:28:33;;;;;;;11.35;10.23;;;13.90;99.90;;;;;;5052722;28;20048;-83
2023/06/08 02:31:00;;;;;;;12.32;11.00;;;13.80;99.90;;;;;;5052531;28;20041;-84
2023/06/08 02:33:27;;;;;;;12.57;11.48;;;13.70;99.90;;;;;;5053244;28;20033;-81
2023/06/08 02:35:54;;;;;;;12.40;11.10;;;13.70;99.90;;;;;;5049649;28;20052;-83
2023/06/08 02:38:20;;;;;;;11.70;10.55;;;13.80;99.90;;;;;;5052967;28;20394;-84
2023/06/08 02:40:47;;;;;;;12.18;10.05;;;13.90;99.90;;;;;;5039905;28;20421;-83
2023/06/08 02:43:15;;;;;;;12.13;10.88;;;13.90;99.90;;;;;;5035375;28;20044;-84
2023/06/08 02:45:44;;;;;;;17.52;11.25;;;14.00;99.90;;;;;;5052296;28;20043;-85
2023/06/08 02:48:11;;;;;;;12.15;10.95;;;13.90;99.90;;;;;;5053711;28;20040;-84
2023/06/08 02:50:37;;;;;;;15.07;11.05;;;13.90;99.90;;;;;;5054403;28;20036;-83
2023/06/08 02:53:04;;;;;;;12.55;9.18;;;13.90;99.90;;;;;;5051680;28;20486;-83
2023/06/08 02:55:34;;;;;;;14.25;10.13;;;13.90;99.90;;;;;;5050994;28;20040;-84
2023/06/08 02:58:03;;;;;;;11.48;10.27;;;13.80;99.90;;;;;;5036459;28;20128;-84
2023/06/08 03:00:30;;;;;;;12.00;10.70;;;13.80;99.90;;;;;;5050810;28;20064;-83
2023/06/08 03:03:17;;;;;;;9.90;8.73;;;13.80;99.90;;;;;;5052438;28;20450;-84
2023/06/08 03:05:46;;;;;;;14.20;10.63;;;13.80;99.90;;;;;;5048382;28;20060;-84
2023/06/08 03:08:13;;;;;;;14.07;10.93;;;13.70;99.90;;;;;;5035870;28;20044;-83
2023/06/08 03:10:40;;;;;;;11.70;10.52;;;13.70;99.90;;;;;;5048537;28;20045;-84
2023/06/08 03:13:09;;;;;;;11.98;9.90;;;13.70;99.90;;;;;;5047682;28;20045;-83
2023/06/08 03:15:37;;;;;;;12.27;10.80;;;13.80;99.90;;;;;;5051772;28;20149;-84
2023/06/08 03:18:04;;;;;;;11.73;10.43;;;13.70;99.90;;;;;;5036056;28;20044;-84
2023/06/08 03:20:31;;;;;;;11.55;9.75;;;13.80;99.90;;;;;;5051810;28;20044;-83
2023/06/08 03:23:07;;;;;;;12.05;10.20;;;13.80;99.90;;;;;;5035363;28;20155;-84
2023/06/08 03:25:36;;;;;;;12.60;9.95;;;13.80;99.90;;;;;;5051713;28;20037;-84
2023/06/08 03:28:03;;;;;;;12.15;10.18;;;13.80;99.90;;;;;;5052122;28;20048;-83
2023/06/08 03:30:30;;;;;;;11.35;9.88;;;13.80;99.90;;;;;;5050149;28;20033;-83
2023/06/08 03:32:57;;;;;;;16.80;10.50;;;13.80;99.90;;;;;;5050952;28;20401;-83
2023/06/08 03:35:32;;;;;;;12.70;10.52;;;13.70;99.90;;;;;;5051224;28;20060;-83
2023/06/08 03:38:34;;;;;;;11.27;10.07;;;13.70;99.90;;;;;;5043137;28;20048;-83
2023/06/08 03:41:04;;;;;;;11.57;10.30;;;13.60;99.90;;;;;;5051799;28;20045;-83
2023/06/08 03:43:31;;;;;;;14.07;9.30;;;13.60;99.90;;;;;;5033438;28;20497;-83
2023/06/08 03:45:58;;;;;;;11.93;9.98;;;13.60;99.90;;;;;;5044196;28;20044;-83
2023/06/08 03:48:25;;;;;;;12.02;10.82;;;13.60;99.90;;;;;;5053331;28;20029;-83
2023/06/08 03:50:52;;;;;;;11.55;10.15;;;13.70;99.90;;;;;;5048931;28;20056;-83
2023/06/08 03:53:21;;;;;;;12.32;9.02;;;13.80;99.90;;;;;;5054304;28;20096;-81
2023/06/08 03:55:47;;;;;;;13.60;9.40;;;13.80;99.90;;;;;;5052481;28;20052;-84
2023/06/08 03:58:13;;;;;;;9.95;8.70;;;13.80;99.90;;;;;;5044447;28;20037;-83
2023/06/08 04:00:42;;;;;;;11.05;9.93;;;13.80;99.90;;;;;;5049778;28;20045;-83
2023/06/08 04:03:09;;;;;;;11.55;9.15;;;13.80;99.90;;;;;;5045605;28;20398;-83
2023/06/08 04:05:36;;;;;;;12.18;9.45;;;13.80;99.90;;;;;;5046777;28;20045;-83
2023/06/08 04:08:03;;;;;;;11.82;9.75;;;13.80;99.90;;;;;;5055920;28;20116;-82
2023/06/08 04:10:31;;;;;;;11.75;9.85;;;13.90;99.90;;;;;;5059328;28;20041;-82
2023/06/08 04:12:58;;;;;;;10.27;8.70;;;13.90;99.90;;;;;;5036053;28;20053;-82
2023/06/08 04:15:25;;;;;;;11.20;9.65;;;14.00;99.90;;;;;;5049523;28;20041;-82
2023/06/08 04:17:53;;;;;;;10.98;8.57;;;14.10;99.90;;;;;;5047862;28;20041;-83
2023/06/08 04:20:22;;;;;;;9.60;8.60;;;14.30;99.90;;;;;;5050207;28;20045;-83
2023/06/08 04:22:49;;;;;;;9.45;8.02;;;14.80;99.90;;;;;;5062683;28;20314;-83
2023/06/08 04:25:17;;;;;;;7.70;6.90;;;15.30;99.90;;;;;;5051011;28;20397;-82
2023/06/08 04:27:45;;;;;;;8.77;7.05;;;15.50;99.90;;;;;;5050513;28;20041;-82
2023/06/08 04:30:12;;;;;;;9.40;7.22;;;15.90;99.90;;;;;;5050693;28;20056;-82
2023/06/08 04:32:38;;;;;;;7.93;7.05;;;16.20;99.90;;;;;;5029946;28;20045;-82
2023/06/08 04:35:06;;;;;;;7.40;6.68;;;16.30;96.00;;;;;;5044225;28;20033;-83
2023/06/08 04:37:34;;;;;;;7.65;6.85;;;16.70;84.90;;;;;;5046585;28;20040;-84
2023/06/08 04:40:01;;;;;;;9.00;6.63;;;17.00;50.00;;;;;;5051435;28;20036;-84
2023/06/08 04:42:33;;;;;;;6.95;6.28;;;16.90;56.50;;;;;;5048504;28;20043;-84
2023/06/08 04:45:00;;;;;;;8.23;6.70;;;17.20;44.80;;;;;;5050821;28;20041;-84
2023/06/08 04:47:31;;;;;;;7.53;6.30;;;17.40;23.30;;;;;;5054248;28;20470;-85
2023/06/08 04:49:58;;;;;;;8.43;6.15;;;17.20;27.20;;;;;;5046322;28;20056;-84
2023/06/08 04:52:26;;;;;;;8.27;6.90;;;17.20;36.80;;;;;;5049261;28;20048;-84
2023/06/08 04:54:52;;;;;;;6.55;5.85;;;17.30;30.80;;;;;;5033490;28;20051;-84
2023/06/08 04:57:23;;;;;;;9.73;6.97;;;17.80;22.30;;;;;;5034595;28;20059;-84
2023/06/08 04:59:49;;;;;;;6.22;5.60;;;18.20;1.00;;;;;;5050499;28;20044;-85
2023/06/08 05:02:16;;;;;;;8.95;6.68;;;18.30;1.00;;;;;;5032243;28;20047;-85
2023/06/08 05:04:42;;;;;;;7.13;6.35;;;18.20;1.00;;;;;;5051723;28;20485;-84
2023/06/08 05:07:08;;;;;;;12.32;6.72;;;17.90;1.00;;;;;;5050028;28;20037;-85
2023/06/08 05:09:34;;;;;;;8.70;5.80;;;17.80;7.60;;;;;;5050362;28;20044;-84
2023/06/08 05:12:00;;;;;;;7.68;5.78;;;17.90;1.00;;;;;;5050173;28;20033;-84
2023/06/08 05:14:26;;;;;;;7.88;6.43;;;18.10;1.00;;;;;;5050820;28;20374;-85
2023/06/08 05:16:53;;;;;;;6.75;5.93;;;18.20;1.00;;;;;;5048979;28;20041;-84
2023/06/08 05:19:19;;;;;;;6.80;6.10;;;18.30;1.00;;;;;;5051585;28;20033;-82
2023/06/08 05:21:45;;;;;;;9.52;6.45;;;18.30;1.00;;;;;;5049897;28;20047;-85
2023/06/08 05:24:11;;;;;;;7.47;5.70;;;18.90;1.00;;;;;;5051641;28;20409;-85
2023/06/08 05:26:39;;;;;;;8.38;5.82;;;19.10;1.00;;;;;;5051144;28;20418;-84
2023/06/08 05:29:05;;;;;;;7.15;5.63;;;19.00;1.00;;;;;;5052082;28;20069;-83
2023/06/08 05:31:34;;;;;;;6.63;5.93;;;18.80;1.00;;;;;;5055322;28;20049;-81
2023/06/08 05:34:00;;;;;;;7.97;6.18;;;19.00;1.00;;;;;;5061272;28;20048;-83
2023/06/08 05:36:26;;;;;;;7.03;5.95;;;19.00;1.00;;;;;;5048705;28;20065;-83
2023/06/08 05:38:52;;;;;;;7.95;6.40;;;19.50;1.00;;;;;;5051583;28;20033;-83
2023/06/08 05:41:18;;;;;;;7.68;6.97;;;19.60;1.00;;;;;;5050033;28;20033;-82
2023/06/08 05:43:45;;;;;;;6.85;6.25;;;19.30;1.00;;;;;;5050545;28;20351;-82
2023/06/08 05:46:11;;;;;;;9.63;6.30;;;19.70;1.00;;;;;;5051572;28;20060;-83
2023/06/08 05:48:37;;;;;;;7.47;6.05;;;19.80;1.00;;;;;;5046665;28;20044;-82
2023/06/08 05:51:03;;;;;;;7.82;6.30;;;19.60;1.00;;;;;;5051232;28;20033;-82
2023/06/08 05:53:30;;;;;;;7.07;6.30;;;19.80;1.00;;;;;;5049722;28;20029;-83
2023/06/08 05:55:56;;;;;;;8.23;6.30;;;19.70;1.00;;;;;;5050768;28;20037;-84
2023/06/08 05:58:23;;;;;;;7.10;6.18;;;19.90;1.00;;;;;;5055018;28;20025;-84
2023/06/08 06:00:49;;;;;;;7.32;6.53;;;20.60;1.00;;;;;;5054585;28;20032;-85
2023/06/08 06:03:15;;;;;;;7.38;6.20;;;21.20;1.00;;;;;;5053934;28;20025;-83
2023/06/08 06:05:41;;;;;;;6.45;5.85;;;21.70;1.00;;;;;;5052048;28;20040;-83
2023/06/08 06:08:07;;;;;;;6.97;5.68;;;20.80;1.00;;;;;;5054877;28;20029;-83
2023/06/08 06:10:34;;;;;;;7.22;6.20;;;20.70;1.00;;;;;;5056062;28;20355;-83
2023/06/08 06:13:00;;;;;;;7.10;5.45;;;20.90;1.00;;;;;;5053772;28;20492;-83
2023/06/08 06:15:26;;;;;;;7.60;6.07;;;21.10;1.00;;;;;;5051339;28;20052;-84
2023/06/08 06:17:53;;;;;;;6.43;5.50;;;21.80;1.00;;;;;;5054184;28;20036;-84
2023/06/08 06:20:19;;;;;;;6.78;6.15;;;22.60;99.90;;;;;;5054677;28;20389;-83
2023/06/08 06:22:45;;;;;;;5.93;5.35;;;22.70;99.90;;;;;;5052810;28;20465;-82
2023/06/08 06:25:16;;;;;;;6.55;5.55;;;22.50;1.00;;;;;;5053381;28;20040;-82
2023/06/08 06:27:42;;;;;;;5.75;5.25;;;23.00;99.90;;;;;;5051189;28;20044;-83
2023/06/08 06:30:09;;;;;;;6.60;5.13;;;23.30;99.90;;;;;;5054765;28;20037;-82
2023/06/08 06:32:35;;;;;;;6.43;5.60;;;23.10;99.90;;;;;;5053378;28;20037;-83
2023/06/08 06:35:02;;;;;;;6.00;5.35;;;23.50;99.90;;;;;;5054390;28;20036;-84
2023/06/08 06:37:34;;;;;;;5.28;4.78;;;23.30;99.90;;;;;;5052842;28;20056;-84
2023/06/08 06:40:03;;;;;;;7.20;5.75;;;23.70;99.90;;;;;;5053723;28;20405;-84
2023/06/08 06:42:30;;;;;;;7.05;5.05;;;24.10;99.90;;;;;;5051682;28;20029;-82
2023/06/08 06:45:11;;;;;;;5.78;4.88;;;23.90;99.90;;;;;;5049476;28;20044;-82
2023/06/08 06:47:40;;;;;;;5.72;5.20;;;23.20;99.90;;;;;;5053951;28;20029;-79
2023/06/08 06:50:07;;;;;;;6.95;6.25;;;23.40;99.90;;;;;;5054049;28;20501;-82
2023/06/08 06:52:34;;;;;;;6.63;5.10;;;23.90;99.90;;;;;;5052539;28;20037;-82
2023/06/08 06:55:02;;;;;;;5.13;4.57;;;24.60;99.90;;;;;;5053660;28;20025;-84
2023/06/08 06:57:31;;;;;;;7.70;5.00;;;25.30;99.90;;;;;;5054454;28;20037;-83
2023/06/08 07:00:03;;;;;;;7.28;5.28;;;25.70;99.90;;;;;;5059906;28;20291;-84
2023/06/08 07:02:29;;;;;;;6.82;5.75;;;25.60;99.90;;;;;;5050546;28;20481;-83
2023/06/08 07:04:58;;;;;;;6.70;6.15;;;24.90;99.90;;;;;;5052656;28;20041;-83
2023/06/08 07:07:28;;;;;;;5.85;5.35;;;23.50;99.90;;;;;;5053171;28;20048;-82
2023/06/08 07:09:54;;;;;;;7.25;5.78;;;22.80;99.90;;;;;;5059272;28;20033;-83
2023/06/08 07:12:20;;;;;;;6.82;5.47;;;22.60;99.90;;;;;;5064936;28;20033;-83
2023/06/08 07:14:46;;;;;;;6.75;6.15;;;22.70;99.90;;;;;;5053814;28;20032;-83
2023/06/08 07:17:14;;;;;;;7.00;6.05;;;22.90;99.90;;;;;;5054492;28;20045;-82
2023/06/08 07:19:41;;;;;;;7.05;6.15;;;23.00;99.90;;;;;;5052791;28;20062;-82
2023/06/08 07:22:07;;;;;;;9.43;5.25;;;23.10;99.90;;;;;;5052287;28;20032;-82
2023/06/08 07:24:33;;;;;;;6.68;5.55;;;23.40;99.90;;;;;;5049384;28;20041;-77
2023/06/08 07:27:00;;;;;;;6.88;6.20;;;23.80;99.90;;;;;;5052810;28;20033;-82
2023/06/08 07:29:26;;;;;;;8.63;5.65;;;25.00;99.90;;;;;;5049509;28;20033;-82
2023/06/08 07:31:53;;;;;;;7.57;5.88;;;25.20;99.90;;;;;;5051466;28;20122;-81
2023/06/08 07:34:20;;;;;;;6.97;6.28;;;25.20;99.90;;;;;;5052244;28;20052;-82
2023/06/08 07:36:47;;;;;;;9.35;6.03;;;25.10;99.90;;;;;;5053953;28;20056;-81
2023/06/08 07:39:13;;;;;;;6.85;5.07;;;25.70;99.90;;;;;;5056789;28;20501;-79
2023/06/08 07:41:39;;;;;;;7.93;6.32;;;26.20;99.90;;;;;;5046878;28;20053;-82
2023/06/08 07:44:05;;;;;;;10.50;8.48;;;25.50;99.90;;;;;;5050149;28;20037;-77
2023/06/08 07:46:32;;;;;;;8.45;7.53;;;24.90;99.90;;;;;;5056788;28;20446;-82
2023/06/08 07:48:58;;;;;;;8.40;6.88;;;25.00;99.90;;;;;;5048442;28;20470;-81
2023/06/08 07:51:24;;;;;;;9.38;6.95;;;24.90;99.90;;;;;;5049879;28;20037;-83
2023/06/08 07:53:50;;;;;;;8.10;7.28;;;24.50;99.90;;;;;;5051216;28;20052;-82
2023/06/08 07:56:18;;;;;;;9.68;8.48;;;24.10;99.90;;;;;;5048937;28;20036;-85
2023/06/08 07:58:44;;;;;;;10.32;8.50;;;23.60;99.90;;;;;;5061599;28;20040;-82
2023/06/08 08:01:10;;;;;;;9.32;7.97;;;23.70;99.90;;;;;;5051090;28;20060;-83
2023/06/08 08:03:37;;;;;;;8.90;7.25;;;24.30;99.90;;;;;;5066548;28;20030;-81
2023/06/08 08:06:04;;;;;;;11.13;7.75;;;24.10;99.90;;;;;;5052164;28;20049;-83
2023/06/08 08:08:30;;;;;;;12.20;8.13;;;23.80;99.90;;;;;;5044907;28;20032;-83
2023/06/08 08:10:56;;;;;;;8.90;7.88;;;23.90;99.90;;;;;;5047486;28;20043;-82
2023/06/08 08:13:24;;;;;;;10.75;7.38;;;24.10;99.90;;;;;;5046694;28;20056;-84
2023/06/08 08:15:50;;;;;;;7.63;6.93;;;24.60;99.90;;;;;;5048358;28;20064;-85
2023/06/08 08:18:16;;;;;;;11.10;8.00;;;25.20;99.90;;;;;;5050292;28;20025;-85
2023/06/08 08:20:42;;;;;;;10.65;7.35;;;25.00;99.90;;;;;;5047180;28;20041;-84
2023/06/08 08:23:08;;;;;;;12.00;7.25;;;24.20;99.90;;;;;;5048103;28;20032;-85
2023/06/08 08:25:35;;;;;;;8.30;7.10;;;24.40;99.90;;;;;;5050264;28;20041;-86
2023/06/08 08:28:01;;;;;;;9.27;7.00;;;25.00;99.90;;;;;;5049677;28;20028;-82
2023/06/08 08:30:27;;;;;;;7.53;6.28;;;24.60;99.90;;;;;;5049093;28;20028;-85
2023/06/08 08:32:53;;;;;;;7.47;6.75;;;24.00;99.90;;;;;;5047393;28;20049;-85
2023/06/08 08:35:22;;;;;;;7.13;6.03;;;24.50;99.90;;;;;;5044842;28;20159;-85
2023/06/08 08:37:48;;;;;;;8.82;6.72;;;25.60;99.90;;;;;;5032722;28;20041;-85
2023/06/08 08:40:15;;;;;;;8.38;6.50;;;24.90;99.90;;;;;;5049006;28;20040;-85
2023/06/08 08:43:07;;;;;;;11.40;7.40;;;24.10;99.90;;;;;;5049560;28;20043;-85
2023/06/08 08:45:35;;;;;;;7.70;6.80;;;23.70;99.90;;;;;;5069739;28;20029;-82
2023/06/08 08:48:01;;;;;;;7.95;7.13;;;23.70;99.90;;;;;;5050472;28;20044;-84
2023/06/08 08:50:34;;;;;;;7.32;6.63;;;24.10;99.90;;;;;;5050519;28;20036;-84
2023/06/08 08:53:01;;;;;;;8.73;5.95;;;25.40;99.90;;;;;;5049318;28;20048;-85
2023/06/08 08:55:28;;;;;;;8.18;6.38;;;26.20;99.90;;;;;;5053576;28;20041;-85
2023/06/08 08:58:02;;;;;;;6.85;6.00;;;26.40;99.90;;;;;;5048760;28;20076;-85
2023/06/08 09:00:31;;;;;;;7.85;6.93;;;26.80;99.90;;;;;;5048102;28;20127;-84
2023/06/08 09:02:57;;;;;;;8.53;7.63;;;26.50;99.90;;;;;;5040297;28;20033;-87
2023/06/08 09:05:23;;;;;;;8.15;7.30;;;26.20;99.90;;;;;;5050022;28;20033;-84
2023/06/08 09:07:55;;;;;;;10.95;6.53;;;26.70;99.90;;;;;;5048400;28;20025;-83
2023/06/08 09:10:25;;;;;;;7.35;6.43;;;27.30;99.90;;;;;;5048730;28;20033;-84
2023/06/08 09:12:56;;;;;;;7.30;6.60;;;25.30;99.90;;;;;;5046884;28;20037;-84
2023/06/08 09:15:31;;;;;;;7.45;6.55;;;25.20;99.90;;;;;;5067385;28;20025;-84
2023/06/08 09:18:02;;;;;;;7.75;6.22;;;25.70;99.90;;;;;;5047458;28;20033;-84
2023/06/08 09:20:33;;;;;;;6.55;5.45;;;26.80;99.90;;;;;;5049781;28;20044;-83
2023/06/08 09:23:17;;;;;;;7.20;6.53;;;27.10;99.90;;;;;;5040293;28;20037;-83
2023/06/08 09:25:46;;;;;;;7.88;6.43;;;28.00;99.90;;;;;;5047368;28;20536;-84
2023/06/08 09:28:17;;;;;;;7.88;6.25;;;28.10;99.90;;;;;;5050053;28;20032;-82
2023/06/08 09:30:45;;;;;;;7.18;6.57;;;28.50;99.90;;;;;;5052549;28;20033;-78
2023/06/08 09:33:25;;;;;;;7.75;6.80;;;28.10;99.90;;;;;;5054250;28;20393;-79
2023/06/08 09:35:57;;;;;;;7.35;6.60;;;27.90;99.90;;;;;;5054310;28;20029;-79
2023/06/08 09:38:26;;;;;;;6.40;5.80;;;27.70;99.90;;;;;;5052693;28;20044;-81
2023/06/08 09:41:14;;;;;;;7.25;6.55;;;27.60;99.90;;;;;;5052962;28;20045;-81
2023/06/08 09:43:44;;;;;;;6.53;5.75;;;28.40;99.90;;;;;;5052737;28;20470;-80
2023/06/08 09:46:15;;;;;;;6.07;5.00;;;28.90;99.90;;;;;;5053673;28;20492;-80
2023/06/08 09:48:52;;;;;;;6.70;5.80;;;29.60;99.90;;;;;;5053991;28;20048;-82
2023/06/08 09:51:23;;;;;;;7.53;5.95;;;28.50;99.90;;;;;;5051720;28;20406;-81
2023/06/08 09:53:56;;;;;;;12.05;7.30;;;27.80;99.90;;;;;;5053145;28;20033;-81
2023/06/08 09:56:25;;;;;;;10.93;7.95;;;27.40;99.90;;;;;;5050421;28;20033;-82
2023/06/08 09:58:54;;;;;;;6.60;5.97;;;27.30;99.90;;;;;;5049169;28;20033;-80
2023/06/08 10:01:35;;;;;;;8.60;6.35;;;27.20;99.90;;;;;;5049511;28;20029;-80
2023/06/08 10:04:28;;;;;;;7.95;7.15;;;27.50;99.90;;;;;;5051036;28;20033;-82
2023/06/08 10:07:02;;;;;;;10.45;8.60;;;27.30;99.90;;;;;;5050575;28;20335;-83
2023/06/08 10:09:32;;;;;;;9.48;7.35;;;27.40;99.90;;;;;;5052163;28;20048;-81
2023/06/08 10:12:02;;;;;;;7.80;7.00;;;27.40;99.90;;;;;;5049266;28;20577;-80
2023/06/08 10:14:29;;;;;;;12.43;7.85;;;28.10;99.90;;;;;;5053768;28;20048;-80
2023/06/08 10:16:56;;;;;;;7.80;6.78;;;27.30;99.90;;;;;;5050408;28;20036;-82
2023/06/08 10:19:23;;;;;;;8.85;7.30;;;26.20;99.90;;;;;;5052649;28;20043;-82
2023/06/08 10:21:52;;;;;;;9.27;7.15;;;25.70;99.90;;;;;;5046676;28;20037;-79
2023/06/08 10:24:19;;;;;;;7.05;6.38;;;25.70;99.90;;;;;;5061966;28;20366;-82
2023/06/08 10:26:50;;;;;;;9.20;7.00;;;26.00;99.90;;;;;;5044493;28;20025;-81
2023/06/08 10:29:17;;;;;;;7.50;6.63;;;25.90;99.90;;;;;;5049756;28;20378;-81
2023/06/08 10:31:47;;;;;;;8.27;7.38;;;25.90;99.90;;;;;;5051117;28;20112;-82
2023/06/08 10:34:15;;;;;;;8.05;6.30;;;26.00;99.90;;;;;;5054238;28;20486;-84
2023/06/08 10:36:43;;;;;;;8.63;7.82;;;25.90;99.90;;;;;;5050460;28;20045;-82
2023/06/08 10:39:14;;;;;;;13.05;11.23;;;26.10;99.90;;;;;;5051302;28;20029;-84
2023/06/08 10:41:55;;;;;;;7.82;6.93;;;26.40;99.90;;;;;;5047779;28;20056;-82
2023/06/08 10:44:33;;;;;;;7.75;7.03;;;26.30;99.90;;;;;;5047489;28;20044;-81
2023/06/08 10:47:04;;;;;;;6.18;5.57;;;26.20;99.90;;;;;;5050081;28;20040;-81
2023/06/08 10:49:31;;;;;;;7.47;6.70;;;26.10;99.90;;;;;;5055782;28;20032;-83
2023/06/08 10:51:59;;;;;;;6.78;6.07;;;26.00;99.90;;;;;;5048077;28;20028;-87
2023/06/08 10:54:26;;;;;;;7.13;6.40;;;26.00;99.90;;;;;;5051167;28;20028;-82
2023/06/08 10:56:56;;;;;;;7.65;6.38;;;26.40;99.90;;;;;;5050845;28;20025;-82
2023/06/08 10:59:33;;;;;;;9.57;5.55;;;26.50;99.90;;;;;;5050683;28;20029;-83
2023/06/08 11:02:02;;;;;;;5.88;5.38;;;26.80;99.90;;;;;;5045378;28;20044;-81
2023/06/08 11:04:30;;;;;;;15.18;5.30;;;27.10;99.90;;;;;;5051679;28;20028;-80
2023/06/08 11:07:04;;;;;;;8.00;5.68;;;27.50;99.90;;;;;;5047213;28;20064;-80
2023/06/08 11:09:35;;;;;;;6.68;6.03;;;27.90;99.90;;;;;;5035474;28;20052;-82
2023/06/08 11:12:01;;;;;;;8.23;4.88;;;27.60;99.90;;;;;;5049156;28;20393;-84
2023/06/08 11:14:27;;;;;;;6.15;4.95;;;27.00;99.90;;;;;;5055833;28;20040;-80
2023/06/08 11:16:55;;;;;;;5.78;4.68;;;26.70;99.90;;;;;;5050798;28;20051;-81
2023/06/08 11:19:23;;;;;;;5.75;4.88;;;26.60;99.90;;;;;;5051612;28;20036;-79
2023/06/08 11:21:51;;;;;;;4.85;4.30;;;26.50;99.90;;;;;;5049860;28;20044;-82
2023/06/08 11:24:17;;;;;;;5.85;5.35;;;26.20;99.90;;;;;;5051967;28;20028;-80
2023/06/08 11:26:45;;;;;;;6.05;4.88;;;26.20;99.90;;;;;;5056770;28;20048;-82
2023/06/08 11:29:13;;;;;;;4.65;4.20;;;26.40;99.90;;;;;;5049099;28;20032;-80
2023/06/08 11:31:42;;;;;;;4.43;3.78;;;26.60;99.90;;;;;;5049418;28;20033;-82
2023/06/08 11:34:12;;;;;;;4.78;3.60;;;26.70;99.90;;;;;;5051969;28;20041;-81
2023/06/08 11:36:45;;;;;;;4.32;3.92;;;26.50;99.90;;;;;;5051150;28;20045;-82
2023/06/08 11:39:11;;;;;;;6.05;4.40;;;26.70;99.90;;;;;;5044674;28;20041;-83
2023/06/08 11:41:41;;;;;;;7.65;4.63;;;27.00;99.90;;;;;;5050003;28;20041;-82
2023/06/08 11:44:08;;;;;;;6.32;4.47;;;26.80;99.90;;;;;;5050380;28;20384;-81
2023/06/08 11:46:36;;;;;;;7.38;4.60;;;26.50;99.90;;;;;;5050943;28;20037;-82
2023/06/08 11:49:11;;;;;;;5.82;4.43;;;26.30;99.90;;;;;;5050264;28;20040;-81
2023/06/08 11:51:49;;;;;;;12.55;5.70;;;26.40;99.90;;;;;;5050431;28;20037;-79
2023/06/08 11:54:16;;;;;;;5.82;4.68;;;26.20;99.90;;;;;;5050060;28;20033;-82
2023/06/08 11:56:46;;;;;;;4.18;3.78;;;25.70;99.90;;;;;;5055265;28;20025;-77
2023/06/08 11:59:14;;;;;;;6.40;4.30;;;25.40;99.90;;;;;;5049238;28;20036;-81
2023/06/08 12:01:59;;;;;;;9.85;5.47;;;25.20;99.90;;;;;;5050664;28;20033;-85
2023/06/08 12:04:33;;;;;;;6.57;3.85;;;25.10;99.90;;;;;;5032044;28;20029;-78
2023/06/08 12:07:12;;;;;;;4.80;4.13;;;25.10;99.90;;;;;;5047004;28;20040;-83
2023/06/08 12:09:46;;;;;;;30.42;6.38;;;24.90;99.90;;;;;;5051225;28;20037;-81
2023/06/08 12:12:12;;;;;;;10.73;4.75;;;24.80;99.90;;;;;;5052882;28;20029;-82
2023/06/08 12:14:46;;;;;;;5.88;4.70;;;24.70;99.90;;;;;;5050753;28;20037;-82
2023/06/08 12:17:16;;;;;;;9.90;5.28;;;24.50;99.90;;;;;;5050001;28;20029;-80
2023/06/08 12:19:43;;;;;;;;;;;24.20;99.90;;;;;;5051869;28;20033;-81
2023/06/08 12:22:09;;;;;;;5.25;4.72;;;24.10;99.90;;;;;;5053309;28;20370;-80
2023/06/08 12:24:36;;;;;;;7.35;4.50;;;23.90;99.90;;;;;;5050466;28;20028;-79
2023/06/08 12:27:03;;;;;;;6.20;4.85;;;23.70;99.90;;;;;;5050563;28;20032;-80
2023/06/08 12:29:29;;;;;;;8.70;6.38;;;23.30;99.90;;;;;;5045098;28;20042;-77
2023/06/08 12:31:55;;;;;;;7.30;5.78;;;22.60;99.90;;;;;;5057406;28;20044;-79
2023/06/08 12:34:21;;;;;;;5.68;4.95;;;22.50;1.00;;;;;;5046761;28;20040;-82
2023/06/08 12:36:48;;;;;;;7.25;5.80;;;22.60;99.90;;;;;;5050015;28;20053;-80
2023/06/08 12:39:15;;;;;;;5.80;5.18;;;22.70;99.90;;;;;;5050542;28;20341;-80
2023/06/08 12:41:41;;;;;;;8.77;5.97;;;22.70;99.90;;;;;;5050143;28;20037;-80
2023/06/08 12:44:10;;;;;;;11.98;7.07;;;22.50;1.00;;;;;;5050544;28;20472;-80
2023/06/08 12:46:36;;;;;;;9.23;6.28;;;22.30;1.00;;;;;;5066645;28;20036;-83
2023/06/08 12:49:03;;;;;;;7.82;5.78;;;22.30;1.00;;;;;;5050735;28;20039;-80
2023/06/08 12:51:29;;;;;;;6.65;5.85;;;22.20;1.00;;;;;;5050433;28;20043;-80